sensor_id;sensor_type;location;lat;lon;timestamp;P1;durP1;ratioP1;P2;durP2;ratioP2
40995;SDS011;26723;57.478;12.066;2023-09-19T00:01:27;2.78;;;2.55;;
40995;SDS011;26723;57.478;12.066;2023-09-19T00:04:37;2.75;;;2.53;;
40995;SDS011;26723;57.478;12.066;2023-09-19T00:07:46;3.85;;;3.25;;
40995;SDS011;26723;57.478;12.066;2023-09-19T00:10:55;3.17;;;2.83;;
40995;SDS011;26723;57.478;12.066;2023-09-19T00:14:06;3.67;;;3.05;;
40995;SDS011;26723;57.478;12.066;2023-09-19T00:17:15;5.38;;;3.10;;
40995;SDS011;26723;57.478;12.066;2023-09-19T00:20:24;3.38;;;3.10;;
40995;SDS011;26723;57.478;12.066;2023-09-19T00:23:32;5.57;;;2.80;;
40995;SDS011;26723;57.478;12.066;2023-09-19T00:26:41;3.63;;;2.83;;
40995;SDS011;26723;57.478;12.066;2023-09-19T00:29:51;3.10;;;2.80;;
40995;SDS011;26723;57.478;12.066;2023-09-19T00:33:00;5.20;;;3.20;;
40995;SDS011;26723;57.478;12.066;2023-09-19T00:36:13;3.60;;;3.08;;
40995;SDS011;26723;57.478;12.066;2023-09-19T00:39:21;2.88;;;2.60;;
40995;SDS011;26723;57.478;12.066;2023-09-19T00:42:32;4.03;;;3.10;;
40995;SDS011;26723;57.478;12.066;2023-09-19T00:45:47;4.75;;;2.58;;
40995;SDS011;26723;57.478;12.066;2023-09-19T00:48:58;2.90;;;2.70;;
40995;SDS011;26723;57.478;12.066;2023-09-19T00:52:08;2.88;;;2.65;;
40995;SDS011;26723;57.478;12.066;2023-09-19T00:55:18;4.15;;;2.70;;
40995;SDS011;26723;57.478;12.066;2023-09-19T00:58:27;3.47;;;2.72;;
40995;SDS011;26723;57.478;12.066;2023-09-19T01:01:41;2.75;;;2.47;;
40995;SDS011;26723;57.478;12.066;2023-09-19T01:04:52;3.05;;;2.47;;
40995;SDS011;26723;57.478;12.066;2023-09-19T01:08:02;2.92;;;2.72;;
40995;SDS011;26723;57.478;12.066;2023-09-19T01:11:12;2.75;;;2.35;;
40995;SDS011;26723;57.478;12.066;2023-09-19T01:14:29;2.40;;;2.20;;
40995;SDS011;26723;57.478;12.066;2023-09-19T01:17:48;3.10;;;2.38;;
40995;SDS011;26723;57.478;12.066;2023-09-19T01:21:06;2.67;;;2.00;;
40995;SDS011;26723;57.478;12.066;2023-09-19T01:24:31;3.00;;;2.70;;
40995;SDS011;26723;57.478;12.066;2023-09-19T01:28:06;2.88;;;2.65;;
40995;SDS011;26723;57.478;12.066;2023-09-19T01:31:25;3.90;;;3.38;;
40995;SDS011;26723;57.478;12.066;2023-09-19T01:34:44;3.45;;;2.95;;
40995;SDS011;26723;57.478;12.066;2023-09-19T01:37:55;2.97;;;2.58;;
40995;SDS011;26723;57.478;12.066;2023-09-19T01:41:05;4.82;;;3.28;;
40995;SDS011;26723;57.478;12.066;2023-09-19T01:44:22;3.78;;;3.17;;
40995;SDS011;26723;57.478;12.066;2023-09-19T01:47:49;3.88;;;3.53;;
40995;SDS011;26723;57.478;12.066;2023-09-19T01:51:05;3.28;;;3.00;;
40995;SDS011;26723;57.478;12.066;2023-09-19T01:54:16;4.15;;;3.65;;
40995;SDS011;26723;57.478;12.066;2023-09-19T01:57:33;4.30;;;3.13;;
40995;SDS011;26723;57.478;12.066;2023-09-19T02:00:45;3.72;;;3.17;;
40995;SDS011;26723;57.478;12.066;2023-09-19T02:03:58;5.80;;;3.42;;
40995;SDS011;26723;57.478;12.066;2023-09-19T02:07:06;3.40;;;3.10;;
40995;SDS011;26723;57.478;12.066;2023-09-19T02:10:15;3.20;;;2.90;;
40995;SDS011;26723;57.478;12.066;2023-09-19T02:13:25;3.92;;;3.38;;
40995;SDS011;26723;57.478;12.066;2023-09-19T02:16:35;2.83;;;2.60;;
40995;SDS011;26723;57.478;12.066;2023-09-19T02:19:45;2.90;;;2.70;;
40995;SDS011;26723;57.478;12.066;2023-09-19T02:22:54;5.28;;;3.00;;
40995;SDS011;26723;57.478;12.066;2023-09-19T02:26:02;2.70;;;2.47;;
40995;SDS011;26723;57.478;12.066;2023-09-19T02:29:12;3.30;;;2.70;;
40995;SDS011;26723;57.478;12.066;2023-09-19T02:32:21;2.50;;;2.10;;
40995;SDS011;26723;57.478;12.066;2023-09-19T02:35:31;3.97;;;2.63;;
40995;SDS011;26723;57.478;12.066;2023-09-19T02:38:43;2.30;;;2.10;;
40995;SDS011;26723;57.478;12.066;2023-09-19T02:41:51;1.85;;;1.73;;
40995;SDS011;26723;57.478;12.066;2023-09-19T02:45:00;2.42;;;2.22;;
40995;SDS011;26723;57.478;12.066;2023-09-19T02:48:12;1.42;;;1.10;;
40995;SDS011;26723;57.478;12.066;2023-09-19T02:51:23;1.17;;;1.17;;
40995;SDS011;26723;57.478;12.066;2023-09-19T02:54:32;1.10;;;1.08;;
40995;SDS011;26723;57.478;12.066;2023-09-19T02:57:42;1.55;;;1.10;;
40995;SDS011;26723;57.478;12.066;2023-09-19T03:00:53;1.05;;;1.05;;
40995;SDS011;26723;57.478;12.066;2023-09-19T03:04:03;1.17;;;1.05;;
40995;SDS011;26723;57.478;12.066;2023-09-19T03:07:16;2.75;;;1.42;;
40995;SDS011;26723;57.478;12.066;2023-09-19T03:10:24;1.20;;;0.75;;
40995;SDS011;26723;57.478;12.066;2023-09-19T03:13:36;0.93;;;0.93;;
40995;SDS011;26723;57.478;12.066;2023-09-19T03:16:45;0.80;;;0.70;;
40995;SDS011;26723;57.478;12.066;2023-09-19T03:19:54;1.20;;;1.20;;
40995;SDS011;26723;57.478;12.066;2023-09-19T03:23:06;0.82;;;0.82;;
40995;SDS011;26723;57.478;12.066;2023-09-19T03:26:15;0.82;;;0.82;;
40995;SDS011;26723;57.478;12.066;2023-09-19T03:29:24;0.70;;;0.70;;
40995;SDS011;26723;57.478;12.066;2023-09-19T03:32:33;0.80;;;0.80;;
40995;SDS011;26723;57.478;12.066;2023-09-19T03:35:43;4.32;;;1.08;;
40995;SDS011;26723;57.478;12.066;2023-09-19T03:39:01;1.90;;;0.90;;
40995;SDS011;26723;57.478;12.066;2023-09-19T03:42:12;0.70;;;0.70;;
40995;SDS011;26723;57.478;12.066;2023-09-19T03:45:20;1.45;;;1.02;;
40995;SDS011;26723;57.478;12.066;2023-09-19T03:48:31;3.08;;;0.60;;
40995;SDS011;26723;57.478;12.066;2023-09-19T03:51:40;1.52;;;0.95;;
40995;SDS011;26723;57.478;12.066;2023-09-19T03:54:50;1.02;;;1.02;;
40995;SDS011;26723;57.478;12.066;2023-09-19T03:57:59;1.95;;;0.70;;
40995;SDS011;26723;57.478;12.066;2023-09-19T04:01:07;2.03;;;0.80;;
40995;SDS011;26723;57.478;12.066;2023-09-19T04:04:16;0.75;;;0.60;;
40995;SDS011;26723;57.478;12.066;2023-09-19T04:07:25;1.63;;;0.50;;
40995;SDS011;26723;57.478;12.066;2023-09-19T04:10:37;1.52;;;0.68;;
40995;SDS011;26723;57.478;12.066;2023-09-19T04:13:45;0.90;;;0.50;;
40995;SDS011;26723;57.478;12.066;2023-09-19T04:16:54;0.75;;;0.75;;
40995;SDS011;26723;57.478;12.066;2023-09-19T04:20:03;3.60;;;0.95;;
40995;SDS011;26723;57.478;12.066;2023-09-19T04:23:14;0.70;;;0.50;;
40995;SDS011;26723;57.478;12.066;2023-09-19T04:26:24;0.55;;;0.55;;
40995;SDS011;26723;57.478;12.066;2023-09-19T04:29:33;2.20;;;0.80;;
40995;SDS011;26723;57.478;12.066;2023-09-19T04:32:41;0.57;;;0.57;;
40995;SDS011;26723;57.478;12.066;2023-09-19T04:35:51;0.50;;;0.50;;
40995;SDS011;26723;57.478;12.066;2023-09-19T04:38:59;0.85;;;0.55;;
40995;SDS011;26723;57.478;12.066;2023-09-19T04:42:13;0.35;;;0.30;;
40995;SDS011;26723;57.478;12.066;2023-09-19T04:45:22;0.55;;;0.55;;
40995;SDS011;26723;57.478;12.066;2023-09-19T04:48:31;2.53;;;0.40;;
40995;SDS011;26723;57.478;12.066;2023-09-19T04:51:41;0.38;;;0.20;;
40995;SDS011;26723;57.478;12.066;2023-09-19T04:54:49;1.35;;;0.47;;
40995;SDS011;26723;57.478;12.066;2023-09-19T04:57:59;0.40;;;0.40;;
40995;SDS011;26723;57.478;12.066;2023-09-19T05:01:09;1.17;;;0.25;;
40995;SDS011;26723;57.478;12.066;2023-09-19T05:04:18;2.25;;;0.52;;
40995;SDS011;26723;57.478;12.066;2023-09-19T05:07:27;2.95;;;0.43;;
40995;SDS011;26723;57.478;12.066;2023-09-19T05:10:35;0.68;;;0.22;;
40995;SDS011;26723;57.478;12.066;2023-09-19T05:13:46;0.47;;;0.47;;
40995;SDS011;26723;57.478;12.066;2023-09-19T05:16:56;0.22;;;0.15;;
40995;SDS011;26723;57.478;12.066;2023-09-19T05:20:06;2.15;;;0.55;;
40995;SDS011;26723;57.478;12.066;2023-09-19T05:23:19;0.10;;;0.10;;
40995;SDS011;26723;57.478;12.066;2023-09-19T05:26:28;0.43;;;0.43;;
40995;SDS011;26723;57.478;12.066;2023-09-19T05:29:38;3.10;;;0.32;;
40995;SDS011;26723;57.478;12.066;2023-09-19T05:32:48;0.30;;;0.30;;
40995;SDS011;26723;57.478;12.066;2023-09-19T05:35:58;0.15;;;0.15;;
40995;SDS011;26723;57.478;12.066;2023-09-19T05:39:06;0.20;;;0.20;;
40995;SDS011;26723;57.478;12.066;2023-09-19T05:42:16;0.47;;;0.47;;
40995;SDS011;26723;57.478;12.066;2023-09-19T05:45:26;0.30;;;0.28;;
40995;SDS011;26723;57.478;12.066;2023-09-19T05:48:35;1.50;;;0.60;;
40995;SDS011;26723;57.478;12.066;2023-09-19T05:51:45;0.82;;;0.57;;
40995;SDS011;26723;57.478;12.066;2023-09-19T05:54:54;0.10;;;0.10;;
40995;SDS011;26723;57.478;12.066;2023-09-19T05:58:03;1.08;;;0.50;;
40995;SDS011;26723;57.478;12.066;2023-09-19T06:01:13;1.00;;;0.60;;
40995;SDS011;26723;57.478;12.066;2023-09-19T06:04:21;0.35;;;0.22;;
40995;SDS011;26723;57.478;12.066;2023-09-19T06:07:30;0.82;;;0.35;;
40995;SDS011;26723;57.478;12.066;2023-09-19T06:10:43;0.20;;;0.17;;
40995;SDS011;26723;57.478;12.066;2023-09-19T06:13:53;2.08;;;0.25;;
40995;SDS011;26723;57.478;12.066;2023-09-19T06:17:04;0.52;;;0.52;;
40995;SDS011;26723;57.478;12.066;2023-09-19T06:20:12;0.35;;;0.35;;
40995;SDS011;26723;57.478;12.066;2023-09-19T06:23:21;0.30;;;0.30;;
40995;SDS011;26723;57.478;12.066;2023-09-19T06:26:32;0.90;;;0.40;;
40995;SDS011;26723;57.478;12.066;2023-09-19T06:29:41;0.68;;;0.55;;
40995;SDS011;26723;57.478;12.066;2023-09-19T06:32:51;0.63;;;0.30;;
40995;SDS011;26723;57.478;12.066;2023-09-19T06:36:04;0.65;;;0.35;;
40995;SDS011;26723;57.478;12.066;2023-09-19T06:39:12;1.13;;;0.38;;
40995;SDS011;26723;57.478;12.066;2023-09-19T06:42:21;0.17;;;0.17;;
40995;SDS011;26723;57.478;12.066;2023-09-19T06:45:32;0.73;;;0.52;;
40995;SDS011;26723;57.478;12.066;2023-09-19T06:48:42;1.20;;;0.30;;
40995;SDS011;26723;57.478;12.066;2023-09-19T06:51:53;0.77;;;0.30;;
40995;SDS011;26723;57.478;12.066;2023-09-19T06:55:04;0.22;;;0.17;;
40995;SDS011;26723;57.478;12.066;2023-09-19T06:58:13;1.33;;;0.30;;
40995;SDS011;26723;57.478;12.066;2023-09-19T07:01:23;0.52;;;0.50;;
40995;SDS011;26723;57.478;12.066;2023-09-19T07:04:33;0.13;;;0.13;;
40995;SDS011;26723;57.478;12.066;2023-09-19T07:07:42;0.50;;;0.30;;
40995;SDS011;26723;57.478;12.066;2023-09-19T07:10:51;2.10;;;0.47;;
40995;SDS011;26723;57.478;12.066;2023-09-19T07:14:01;0.32;;;0.30;;
40995;SDS011;26723;57.478;12.066;2023-09-19T07:17:10;1.90;;;0.70;;
40995;SDS011;26723;57.478;12.066;2023-09-19T07:20:21;0.40;;;0.25;;
40995;SDS011;26723;57.478;12.066;2023-09-19T07:23:29;1.90;;;0.52;;
40995;SDS011;26723;57.478;12.066;2023-09-19T07:26:41;2.50;;;0.57;;
40995;SDS011;26723;57.478;12.066;2023-09-19T07:29:50;0.55;;;0.30;;
40995;SDS011;26723;57.478;12.066;2023-09-19T07:33:00;0.52;;;0.10;;
40995;SDS011;26723;57.478;12.066;2023-09-19T07:36:11;0.20;;;0.20;;
40995;SDS011;26723;57.478;12.066;2023-09-19T07:39:20;0.50;;;0.30;;
40995;SDS011;26723;57.478;12.066;2023-09-19T07:42:29;1.02;;;1.02;;
40995;SDS011;26723;57.478;12.066;2023-09-19T07:45:38;0.57;;;0.40;;
40995;SDS011;26723;57.478;12.066;2023-09-19T07:48:47;0.63;;;0.57;;
40995;SDS011;26723;57.478;12.066;2023-09-19T07:51:57;0.45;;;0.40;;
40995;SDS011;26723;57.478;12.066;2023-09-19T07:55:06;1.50;;;0.57;;
40995;SDS011;26723;57.478;12.066;2023-09-19T07:58:16;1.55;;;0.50;;
40995;SDS011;26723;57.478;12.066;2023-09-19T08:01:25;0.32;;;0.32;;
40995;SDS011;26723;57.478;12.066;2023-09-19T08:04:34;1.40;;;0.25;;
40995;SDS011;26723;57.478;12.066;2023-09-19T08:07:44;0.50;;;0.50;;
40995;SDS011;26723;57.478;12.066;2023-09-19T08:10:55;0.82;;;0.50;;
40995;SDS011;26723;57.478;12.066;2023-09-19T08:14:05;1.67;;;0.70;;
40995;SDS011;26723;57.478;12.066;2023-09-19T08:17:14;0.60;;;0.50;;
40995;SDS011;26723;57.478;12.066;2023-09-19T08:20:23;1.65;;;0.40;;
40995;SDS011;26723;57.478;12.066;2023-09-19T08:23:33;0.55;;;0.30;;
40995;SDS011;26723;57.478;12.066;2023-09-19T08:26:41;0.30;;;0.30;;
40995;SDS011;26723;57.478;12.066;2023-09-19T08:29:51;0.28;;;0.28;;
40995;SDS011;26723;57.478;12.066;2023-09-19T08:33:00;0.32;;;0.30;;
40995;SDS011;26723;57.478;12.066;2023-09-19T08:36:11;0.52;;;0.52;;
40995;SDS011;26723;57.478;12.066;2023-09-19T08:39:22;1.48;;;0.50;;
40995;SDS011;26723;57.478;12.066;2023-09-19T08:42:30;0.50;;;0.50;;
40995;SDS011;26723;57.478;12.066;2023-09-19T08:45:39;1.08;;;0.70;;
40995;SDS011;26723;57.478;12.066;2023-09-19T08:48:50;1.17;;;0.65;;
40995;SDS011;26723;57.478;12.066;2023-09-19T08:52:10;0.63;;;0.63;;
40995;SDS011;26723;57.478;12.066;2023-09-19T08:55:31;0.77;;;0.65;;
40995;SDS011;26723;57.478;12.066;2023-09-19T08:58:43;1.10;;;0.55;;
40995;SDS011;26723;57.478;12.066;2023-09-19T09:01:54;0.93;;;0.35;;
40995;SDS011;26723;57.478;12.066;2023-09-19T09:05:04;0.10;;;0.10;;
40995;SDS011;26723;57.478;12.066;2023-09-19T09:08:13;0.35;;;0.35;;
40995;SDS011;26723;57.478;12.066;2023-09-19T09:11:24;0.80;;;0.20;;
40995;SDS011;26723;57.478;12.066;2023-09-19T09:14:34;0.40;;;0.38;;
40995;SDS011;26723;57.478;12.066;2023-09-19T09:17:43;0.55;;;0.45;;
40995;SDS011;26723;57.478;12.066;2023-09-19T09:20:55;1.38;;;0.40;;
40995;SDS011;26723;57.478;12.066;2023-09-19T09:27:48;0.80;;;0.45;;
40995;SDS011;26723;57.478;12.066;2023-09-19T09:31:12;0.68;;;0.65;;
40995;SDS011;26723;57.478;12.066;2023-09-19T09:34:32;3.63;;;0.40;;
40995;SDS011;26723;57.478;12.066;2023-09-19T09:37:41;1.95;;;0.60;;
40995;SDS011;26723;57.478;12.066;2023-09-19T09:40:54;0.40;;;0.40;;
40995;SDS011;26723;57.478;12.066;2023-09-19T09:44:14;1.00;;;0.65;;
40995;SDS011;26723;57.478;12.066;2023-09-19T09:50:48;0.32;;;0.32;;
40995;SDS011;26723;57.478;12.066;2023-09-19T09:54:09;0.30;;;0.30;;
40995;SDS011;26723;57.478;12.066;2023-09-19T09:57:20;0.08;;;0.08;;
40995;SDS011;26723;57.478;12.066;2023-09-19T10:00:33;0.15;;;0.08;;
40995;SDS011;26723;57.478;12.066;2023-09-19T10:03:48;0.10;;;0.10;;
40995;SDS011;26723;57.478;12.066;2023-09-19T10:06:59;0.13;;;0.13;;
40995;SDS011;26723;57.478;12.066;2023-09-19T10:10:12;0.43;;;0.10;;
40995;SDS011;26723;57.478;12.066;2023-09-19T10:13:23;3.10;;;0.45;;
40995;SDS011;26723;57.478;12.066;2023-09-19T10:16:41;0.55;;;0.38;;
40995;SDS011;26723;57.478;12.066;2023-09-19T10:19:54;0.10;;;0.10;;
40995;SDS011;26723;57.478;12.066;2023-09-19T10:23:05;1.08;;;0.40;;
40995;SDS011;26723;57.478;12.066;2023-09-19T10:26:19;1.05;;;0.73;;
40995;SDS011;26723;57.478;12.066;2023-09-19T10:29:31;1.38;;;0.22;;
40995;SDS011;26723;57.478;12.066;2023-09-19T10:32:44;1.30;;;0.20;;
40995;SDS011;26723;57.478;12.066;2023-09-19T10:35:54;0.10;;;0.10;;
40995;SDS011;26723;57.478;12.066;2023-09-19T10:39:06;0.25;;;0.25;;
40995;SDS011;26723;57.478;12.066;2023-09-19T10:42:18;0.65;;;0.65;;
40995;SDS011;26723;57.478;12.066;2023-09-19T10:45:28;0.70;;;0.45;;
40995;SDS011;26723;57.478;12.066;2023-09-19T10:48:41;1.38;;;0.45;;
40995;SDS011;26723;57.478;12.066;2023-09-19T10:51:54;0.15;;;0.15;;
40995;SDS011;26723;57.478;12.066;2023-09-19T10:55:07;0.52;;;0.30;;
40995;SDS011;26723;57.478;12.066;2023-09-19T10:58:24;0.70;;;0.30;;
40995;SDS011;26723;57.478;12.066;2023-09-19T11:01:42;0.08;;;0.08;;
40995;SDS011;26723;57.478;12.066;2023-09-19T11:04:56;0.20;;;0.20;;
40995;SDS011;26723;57.478;12.066;2023-09-19T11:08:20;0.10;;;0.10;;
40995;SDS011;26723;57.478;12.066;2023-09-19T11:11:39;0.22;;;0.10;;
40995;SDS011;26723;57.478;12.066;2023-09-19T11:14:57;0.10;;;0.10;;
40995;SDS011;26723;57.478;12.066;2023-09-19T11:18:09;0.20;;;0.20;;
40995;SDS011;26723;57.478;12.066;2023-09-19T11:21:58;0.30;;;0.30;;
40995;SDS011;26723;57.478;12.066;2023-09-19T11:28:58;3.13;;;0.28;;
40995;SDS011;26723;57.478;12.066;2023-09-19T11:36:17;0.20;;;0.17;;
40995;SDS011;26723;57.478;12.066;2023-09-19T11:39:33;0.15;;;0.10;;
40995;SDS011;26723;57.478;12.066;2023-09-19T11:42:44;0.88;;;0.25;;
40995;SDS011;26723;57.478;12.066;2023-09-19T11:46:04;0.20;;;0.20;;
40995;SDS011;26723;57.478;12.066;2023-09-19T11:49:13;1.00;;;0.20;;
40995;SDS011;26723;57.478;12.066;2023-09-19T11:52:27;0.05;;;0.05;;
40995;SDS011;26723;57.478;12.066;2023-09-19T11:55:42;0.95;;;0.15;;
40995;SDS011;26723;57.478;12.066;2023-09-19T11:58:52;1.67;;;0.35;;
40995;SDS011;26723;57.478;12.066;2023-09-19T12:02:03;0.10;;;0.10;;
40995;SDS011;26723;57.478;12.066;2023-09-19T12:05:15;1.17;;;0.20;;
40995;SDS011;26723;57.478;12.066;2023-09-19T12:08:24;1.98;;;0.10;;
40995;SDS011;26723;57.478;12.066;2023-09-19T12:11:40;3.03;;;0.45;;
40995;SDS011;26723;57.478;12.066;2023-09-19T12:14:51;0.25;;;0.25;;
40995;SDS011;26723;57.478;12.066;2023-09-19T12:17:59;0.10;;;0.10;;
40995;SDS011;26723;57.478;12.066;2023-09-19T12:24:38;0.50;;;0.50;;
40995;SDS011;26723;57.478;12.066;2023-09-19T12:27:50;0.15;;;0.13;;
40995;SDS011;26723;57.478;12.066;2023-09-19T12:31:05;0.10;;;0.10;;
40995;SDS011;26723;57.478;12.066;2023-09-19T12:34:15;0.20;;;0.20;;
40995;SDS011;26723;57.478;12.066;2023-09-19T12:37:26;0.50;;;0.50;;
40995;SDS011;26723;57.478;12.066;2023-09-19T12:40:36;0.95;;;0.20;;
40995;SDS011;26723;57.478;12.066;2023-09-19T12:43:47;0.20;;;0.20;;
40995;SDS011;26723;57.478;12.066;2023-09-19T12:46:55;0.40;;;0.40;;
40995;SDS011;26723;57.478;12.066;2023-09-19T12:50:07;2.13;;;0.25;;
40995;SDS011;26723;57.478;12.066;2023-09-19T12:53:26;1.45;;;0.20;;
40995;SDS011;26723;57.478;12.066;2023-09-19T12:56:39;0.63;;;0.20;;
40995;SDS011;26723;57.478;12.066;2023-09-19T12:59:53;0.13;;;0.10;;
40995;SDS011;26723;57.478;12.066;2023-09-19T13:03:11;0.40;;;0.30;;
40995;SDS011;26723;57.478;12.066;2023-09-19T13:06:34;0.20;;;0.20;;
40995;SDS011;26723;57.478;12.066;2023-09-19T13:13:23;0.50;;;0.50;;
40995;SDS011;26723;57.478;12.066;2023-09-19T13:16:36;0.15;;;0.05;;
40995;SDS011;26723;57.478;12.066;2023-09-19T13:20:04;1.02;;;0.43;;
40995;SDS011;26723;57.478;12.066;2023-09-19T13:23:25;0.30;;;0.30;;
40995;SDS011;26723;57.478;12.066;2023-09-19T13:26:34;0.70;;;0.20;;
40995;SDS011;26723;57.478;12.066;2023-09-19T13:29:42;0.30;;;0.30;;
40995;SDS011;26723;57.478;12.066;2023-09-19T13:33:04;0.90;;;0.32;;
40995;SDS011;26723;57.478;12.066;2023-09-19T13:36:13;0.30;;;0.30;;
40995;SDS011;26723;57.478;12.066;2023-09-19T13:39:22;0.10;;;0.10;;
40995;SDS011;26723;57.478;12.066;2023-09-19T13:42:31;0.50;;;0.20;;
40995;SDS011;26723;57.478;12.066;2023-09-19T13:45:40;0.57;;;0.57;;
40995;SDS011;26723;57.478;12.066;2023-09-19T13:48:50;0.40;;;0.40;;
40995;SDS011;26723;57.478;12.066;2023-09-19T13:52:01;0.68;;;0.13;;
40995;SDS011;26723;57.478;12.066;2023-09-19T13:55:11;0.20;;;0.20;;
40995;SDS011;26723;57.478;12.066;2023-09-19T13:58:20;0.17;;;0.13;;
40995;SDS011;26723;57.478;12.066;2023-09-19T14:01:30;0.22;;;0.13;;
40995;SDS011;26723;57.478;12.066;2023-09-19T14:04:41;0.38;;;0.38;;
40995;SDS011;26723;57.478;12.066;2023-09-19T14:07:50;0.52;;;0.28;;
40995;SDS011;26723;57.478;12.066;2023-09-19T14:10:58;0.13;;;0.10;;
40995;SDS011;26723;57.478;12.066;2023-09-19T14:14:13;1.42;;;0.30;;
40995;SDS011;26723;57.478;12.066;2023-09-19T14:17:22;0.45;;;0.38;;
40995;SDS011;26723;57.478;12.066;2023-09-19T14:20:37;0.85;;;0.32;;
40995;SDS011;26723;57.478;12.066;2023-09-19T14:23:47;0.70;;;0.28;;
40995;SDS011;26723;57.478;12.066;2023-09-19T14:26:55;0.20;;;0.20;;
40995;SDS011;26723;57.478;12.066;2023-09-19T14:30:05;0.57;;;0.38;;
40995;SDS011;26723;57.478;12.066;2023-09-19T14:33:14;0.22;;;0.17;;
40995;SDS011;26723;57.478;12.066;2023-09-19T14:36:24;1.45;;;0.20;;
40995;SDS011;26723;57.478;12.066;2023-09-19T14:39:35;0.55;;;0.43;;
40995;SDS011;26723;57.478;12.066;2023-09-19T14:42:45;1.15;;;0.45;;
40995;SDS011;26723;57.478;12.066;2023-09-19T14:46:02;0.65;;;0.65;;
40995;SDS011;26723;57.478;12.066;2023-09-19T14:49:11;0.20;;;0.20;;
40995;SDS011;26723;57.478;12.066;2023-09-19T14:52:21;0.17;;;0.17;;
40995;SDS011;26723;57.478;12.066;2023-09-19T14:55:43;2.22;;;0.43;;
40995;SDS011;26723;57.478;12.066;2023-09-19T14:58:54;0.30;;;0.28;;
40995;SDS011;26723;57.478;12.066;2023-09-19T15:02:03;0.30;;;0.30;;
40995;SDS011;26723;57.478;12.066;2023-09-19T15:05:11;0.40;;;0.38;;
40995;SDS011;26723;57.478;12.066;2023-09-19T15:08:27;0.10;;;0.10;;
40995;SDS011;26723;57.478;12.066;2023-09-19T15:11:35;0.10;;;0.08;;
40995;SDS011;26723;57.478;12.066;2023-09-19T15:14:44;0.30;;;0.30;;
40995;SDS011;26723;57.478;12.066;2023-09-19T15:17:52;0.68;;;0.45;;
40995;SDS011;26723;57.478;12.066;2023-09-19T15:21:01;0.60;;;0.55;;
40995;SDS011;26723;57.478;12.066;2023-09-19T15:24:12;0.85;;;0.85;;
40995;SDS011;26723;57.478;12.066;2023-09-19T15:27:21;0.43;;;0.43;;
40995;SDS011;26723;57.478;12.066;2023-09-19T15:30:29;0.63;;;0.22;;
40995;SDS011;26723;57.478;12.066;2023-09-19T15:33:38;0.20;;;0.20;;
40995;SDS011;26723;57.478;12.066;2023-09-19T15:36:47;0.20;;;0.20;;
40995;SDS011;26723;57.478;12.066;2023-09-19T15:39:57;0.28;;;0.28;;
40995;SDS011;26723;57.478;12.066;2023-09-19T15:43:06;0.25;;;0.20;;
40995;SDS011;26723;57.478;12.066;2023-09-19T15:46:14;0.22;;;0.22;;
40995;SDS011;26723;57.478;12.066;2023-09-19T15:49:23;2.65;;;0.63;;
40995;SDS011;26723;57.478;12.066;2023-09-19T15:52:31;1.27;;;0.55;;
40995;SDS011;26723;57.478;12.066;2023-09-19T15:55:42;1.75;;;0.32;;
40995;SDS011;26723;57.478;12.066;2023-09-19T15:58:51;0.65;;;0.20;;
40995;SDS011;26723;57.478;12.066;2023-09-19T16:02:01;0.40;;;0.40;;
40995;SDS011;26723;57.478;12.066;2023-09-19T16:05:10;0.63;;;0.50;;
40995;SDS011;26723;57.478;12.066;2023-09-19T16:08:19;0.28;;;0.28;;
40995;SDS011;26723;57.478;12.066;2023-09-19T16:11:30;1.23;;;0.52;;
40995;SDS011;26723;57.478;12.066;2023-09-19T16:14:43;0.22;;;0.22;;
40995;SDS011;26723;57.478;12.066;2023-09-19T16:17:51;2.00;;;0.40;;
40995;SDS011;26723;57.478;12.066;2023-09-19T16:21:01;1.75;;;0.57;;
40995;SDS011;26723;57.478;12.066;2023-09-19T16:24:10;0.30;;;0.30;;
40995;SDS011;26723;57.478;12.066;2023-09-19T16:27:20;2.92;;;0.75;;
40995;SDS011;26723;57.478;12.066;2023-09-19T16:30:28;1.38;;;0.77;;
40995;SDS011;26723;57.478;12.066;2023-09-19T16:33:40;3.35;;;0.50;;
40995;SDS011;26723;57.478;12.066;2023-09-19T16:36:50;1.55;;;0.28;;
40995;SDS011;26723;57.478;12.066;2023-09-19T16:39:59;0.20;;;0.20;;
40995;SDS011;26723;57.478;12.066;2023-09-19T16:43:08;1.60;;;0.57;;
40995;SDS011;26723;57.478;12.066;2023-09-19T16:46:18;0.60;;;0.60;;
40995;SDS011;26723;57.478;12.066;2023-09-19T16:49:27;1.15;;;0.40;;
40995;SDS011;26723;57.478;12.066;2023-09-19T16:52:36;0.70;;;0.40;;
40995;SDS011;26723;57.478;12.066;2023-09-19T16:55:45;0.60;;;0.30;;
40995;SDS011;26723;57.478;12.066;2023-09-19T16:58:56;0.17;;;0.17;;
40995;SDS011;26723;57.478;12.066;2023-09-19T17:02:08;1.65;;;0.50;;
40995;SDS011;26723;57.478;12.066;2023-09-19T17:05:17;0.90;;;0.40;;
40995;SDS011;26723;57.478;12.066;2023-09-19T17:08:26;0.30;;;0.30;;
40995;SDS011;26723;57.478;12.066;2023-09-19T17:11:35;1.05;;;0.68;;
40995;SDS011;26723;57.478;12.066;2023-09-19T17:14:46;3.17;;;1.00;;
40995;SDS011;26723;57.478;12.066;2023-09-19T17:17:54;2.40;;;0.52;;
40995;SDS011;26723;57.478;12.066;2023-09-19T17:21:03;0.30;;;0.20;;
40995;SDS011;26723;57.478;12.066;2023-09-19T17:24:15;0.32;;;0.32;;
40995;SDS011;26723;57.478;12.066;2023-09-19T17:27:23;1.23;;;0.57;;
40995;SDS011;26723;57.478;12.066;2023-09-19T17:30:35;4.88;;;0.85;;
40995;SDS011;26723;57.478;12.066;2023-09-19T17:33:46;4.82;;;0.35;;
40995;SDS011;26723;57.478;12.066;2023-09-19T17:36:57;3.83;;;1.02;;
40995;SDS011;26723;57.478;12.066;2023-09-19T17:40:07;0.65;;;0.40;;
40995;SDS011;26723;57.478;12.066;2023-09-19T17:43:17;6.00;;;0.77;;
40995;SDS011;26723;57.478;12.066;2023-09-19T17:46:27;2.42;;;0.98;;
40995;SDS011;26723;57.478;12.066;2023-09-19T17:49:36;4.78;;;0.80;;
40995;SDS011;26723;57.478;12.066;2023-09-19T17:52:45;0.70;;;0.70;;
40995;SDS011;26723;57.478;12.066;2023-09-19T17:55:56;3.55;;;0.90;;
40995;SDS011;26723;57.478;12.066;2023-09-19T17:59:04;5.78;;;1.10;;
40995;SDS011;26723;57.478;12.066;2023-09-19T18:02:14;1.42;;;0.73;;
40995;SDS011;26723;57.478;12.066;2023-09-19T18:05:23;2.05;;;0.77;;
40995;SDS011;26723;57.478;12.066;2023-09-19T18:08:32;1.13;;;1.10;;
40995;SDS011;26723;57.478;12.066;2023-09-19T18:11:41;2.22;;;1.15;;
40995;SDS011;26723;57.478;12.066;2023-09-19T18:14:50;3.13;;;1.25;;
40995;SDS011;26723;57.478;12.066;2023-09-19T18:18:00;0.77;;;0.77;;
40995;SDS011;26723;57.478;12.066;2023-09-19T18:21:09;4.85;;;1.10;;
40995;SDS011;26723;57.478;12.066;2023-09-19T18:24:18;0.60;;;0.60;;
40995;SDS011;26723;57.478;12.066;2023-09-19T18:27:27;5.05;;;0.90;;
40995;SDS011;26723;57.478;12.066;2023-09-19T18:30:37;1.80;;;0.90;;
40995;SDS011;26723;57.478;12.066;2023-09-19T18:33:47;5.05;;;0.95;;
40995;SDS011;26723;57.478;12.066;2023-09-19T18:36:57;0.50;;;0.40;;
40995;SDS011;26723;57.478;12.066;2023-09-19T18:40:06;0.50;;;0.50;;
40995;SDS011;26723;57.478;12.066;2023-09-19T18:43:17;3.88;;;0.55;;
40995;SDS011;26723;57.478;12.066;2023-09-19T18:46:26;6.00;;;0.98;;
40995;SDS011;26723;57.478;12.066;2023-09-19T18:49:38;1.88;;;0.65;;
40995;SDS011;26723;57.478;12.066;2023-09-19T18:52:48;1.77;;;0.65;;
40995;SDS011;26723;57.478;12.066;2023-09-19T18:56:04;2.33;;;0.57;;
40995;SDS011;26723;57.478;12.066;2023-09-19T18:59:14;2.03;;;0.85;;
40995;SDS011;26723;57.478;12.066;2023-09-19T19:02:23;0.85;;;0.45;;
40995;SDS011;26723;57.478;12.066;2023-09-19T19:05:33;0.22;;;0.22;;
40995;SDS011;26723;57.478;12.066;2023-09-19T19:08:43;1.65;;;0.57;;
40995;SDS011;26723;57.478;12.066;2023-09-19T19:11:53;0.52;;;0.35;;
40995;SDS011;26723;57.478;12.066;2023-09-19T19:15:02;1.98;;;0.40;;